メインページ
METAR-TAF:

METAR-TAF

空港 :

キング・ムスワティ3世国際空港

マンジニ, スワジランド

緯度: 26-21-24S, 経度: 031-43-01E, 海抜: 324m

現時点の気象観測

当レポートは4時間50分前の19:00(UTC)に作成
西の風 5kt
気温 13°C
湿度 82%
気圧 1033 hPa
視程10km以上
1,500メートル以下は雲なし、積乱雲なし

METAR: FDSK 231900Z 27005KT CAVOK 13/10 Q1033 NOSIG

時間: 01:50 (23:50 UTC)

予報

当レポートは13時間50分前の10:00(UTC)に作成
予報は23日の 12時(UTC)から 23日の 21時(UTC)まで有効
の風 12kt
視程10km以上
高度3500ftの雲は散在している

TAF: FDSK 231000Z 2312/2321 18012KT 9999 SCT035

4,000以上の空港の気象観測と天気予報(METAR報とTAF報)

利用可能な観測所は地図上に黄色い丸と赤い丸で示す。

丸の上にカーソルを重ねると観測所名を参照できる。

次にクリックすると気象観測と天気予報を参照できる。

マップの切り替え:黒色「×」印の緑ボタンをクリックして拡大、「-」印の緑ボタンをクリックして縮小、緑色の三角印をクリックして隣りの地図に切り替え


METAR-TAF: